createdAt,value
2022-10-09T00:01:28.886Z,6.55
2022-10-09T00:03:58.232Z,7.40
2022-10-09T00:06:33.914Z,6.85
2022-10-09T00:09:02.813Z,6.82
2022-10-09T00:11:33.347Z,6.07
2022-10-09T00:14:01.343Z,5.93
2022-10-09T00:16:29.361Z,4.95
2022-10-09T00:18:57.443Z,5.13
2022-10-09T00:21:32.833Z,5.68
2022-10-09T00:24:02.639Z,5.47
2022-10-09T00:26:30.655Z,5.05
2022-10-09T00:28:58.556Z,4.47
2022-10-09T00:31:26.345Z,4.65
2022-10-09T00:33:53.916Z,4.60
2022-10-09T00:36:24.621Z,4.70
2022-10-09T00:38:54.233Z,4.45
2022-10-09T00:41:27.096Z,4.20
2022-10-09T00:43:58.528Z,3.72
2022-10-09T00:46:51.238Z,4.00
2022-10-09T00:49:39.044Z,3.50
2022-10-09T00:52:08.030Z,3.40
2022-10-09T00:54:39.634Z,3.80
2022-10-09T00:57:08.443Z,2.97
2022-10-09T00:59:36.927Z,3.30
2022-10-09T01:02:04.604Z,3.40
2022-10-09T01:04:32.300Z,2.92
2022-10-09T01:07:25.210Z,3.80
2022-10-09T01:10:22.426Z,2.70
2022-10-09T01:13:23.700Z,3.30
2022-10-09T01:16:24.004Z,2.85
2022-10-09T01:19:23.115Z,2.30
2022-10-09T01:22:51.422Z,2.47
2022-10-09T01:25:36.969Z,2.50
2022-10-09T01:28:06.970Z,2.50
2022-10-09T01:30:35.968Z,2.50
2022-10-09T01:33:05.289Z,2.45
2022-10-09T01:35:32.636Z,2.22
2022-10-09T01:38:02.732Z,2.40
2022-10-09T01:40:30.786Z,2.30
2022-10-09T01:42:59.845Z,2.15
2022-10-09T01:45:42.223Z,2.30
2022-10-09T01:48:18.407Z,2.42
2022-10-09T01:50:53.552Z,1.92
2022-10-09T01:53:24.548Z,1.85
2022-10-09T01:56:15.241Z,2.10
2022-10-09T01:58:57.013Z,1.90
2022-10-09T02:01:33.434Z,1.88
2022-10-09T02:04:05.344Z,1.70
2022-10-09T02:06:33.486Z,1.95
2022-10-09T02:09:01.989Z,1.73
2022-10-09T02:11:32.918Z,1.20
2022-10-09T02:14:00.671Z,1.50
2022-10-09T02:16:55.443Z,2.00
2022-10-09T02:19:33.979Z,2.07
2022-10-09T02:22:26.596Z,1.35
2022-10-09T02:24:54.658Z,1.50
2022-10-09T02:27:22.580Z,1.55
2022-10-09T02:29:51.185Z,1.50
2022-10-09T02:32:18.810Z,1.48
2022-10-09T02:34:46.086Z,1.35
2022-10-09T02:37:13.578Z,1.10
2022-10-09T02:40:49.413Z,1.33
2022-10-09T02:43:16.753Z,1.27
2022-10-09T02:45:44.154Z,1.33
2022-10-09T02:48:11.615Z,1.10
2022-10-09T02:50:38.934Z,1.05
2022-10-09T02:53:06.215Z,1.30
2022-10-09T02:55:33.532Z,0.98
2022-10-09T02:58:00.772Z,1.30
2022-10-09T03:00:28.323Z,1.20
2022-10-09T03:02:55.612Z,1.60
2022-10-09T03:05:23.063Z,1.52
2022-10-09T03:07:52.494Z,1.25
2022-10-09T03:10:23.260Z,1.45
2022-10-09T03:12:50.825Z,0.82
2022-10-09T03:15:18.510Z,0.80
2022-10-09T03:17:45.756Z,1.27
2022-10-09T03:20:13.109Z,0.90
2022-10-09T03:22:40.520Z,1.05
2022-10-09T03:25:08.578Z,1.20
2022-10-09T03:27:36.268Z,0.80
2022-10-09T03:30:04.705Z,0.90
2022-10-09T03:32:32.108Z,1.20
2022-10-09T03:34:59.562Z,1.10
2022-10-09T03:37:26.909Z,0.82
2022-10-09T03:39:54.380Z,1.00
2022-10-09T03:42:23.038Z,1.02
2022-10-09T03:44:51.151Z,1.05
2022-10-09T03:47:18.894Z,1.10
2022-10-09T03:49:46.397Z,1.20
2022-10-09T03:52:13.897Z,0.90
2022-10-09T03:54:41.422Z,1.10
2022-10-09T03:57:08.998Z,1.00
2022-10-09T03:59:36.435Z,0.98
2022-10-09T04:02:03.821Z,1.13
2022-10-09T04:04:31.282Z,1.10
2022-10-09T04:07:01.400Z,1.30
2022-10-09T04:09:28.895Z,1.50
2022-10-09T04:11:56.554Z,0.90
2022-10-09T04:14:23.996Z,0.80
2022-10-09T04:16:51.314Z,0.93
2022-10-09T04:19:18.680Z,0.82
2022-10-09T04:21:46.144Z,1.05
2022-10-09T04:24:13.808Z,0.80
2022-10-09T04:26:41.238Z,1.05
2022-10-09T04:29:08.481Z,1.10
2022-10-09T04:31:35.866Z,0.85
2022-10-09T04:34:03.987Z,0.98
2022-10-09T04:36:31.577Z,0.82
2022-10-09T04:38:58.928Z,0.98
2022-10-09T04:41:26.386Z,0.95
2022-10-09T04:43:58.040Z,0.95
2022-10-09T04:46:25.383Z,0.80
2022-10-09T04:48:52.768Z,0.80
2022-10-09T04:51:20.404Z,0.85
2022-10-09T04:53:47.840Z,0.90
2022-10-09T04:56:18.635Z,0.93
2022-10-09T04:58:47.201Z,1.00
2022-10-09T05:01:21.717Z,0.80
2022-10-09T05:03:50.021Z,0.70
2022-10-09T05:06:19.925Z,0.85
2022-10-09T05:08:48.277Z,0.70
2022-10-09T05:11:19.738Z,0.80
2022-10-09T05:13:55.210Z,0.70
2022-10-09T05:16:29.426Z,0.80
2022-10-09T05:18:59.433Z,0.77
2022-10-09T05:21:28.215Z,0.65
2022-10-09T05:23:56.151Z,0.82
2022-10-09T05:26:26.085Z,0.70
2022-10-09T05:28:53.833Z,0.70
2022-10-09T05:31:28.576Z,0.85
2022-10-09T05:33:59.567Z,0.70
2022-10-09T05:36:26.967Z,0.77
2022-10-09T05:38:54.505Z,0.60
2022-10-09T05:41:22.126Z,1.10
2022-10-09T05:43:50.563Z,0.60
2022-10-09T05:46:24.596Z,1.13
2022-10-09T05:48:55.328Z,0.80
2022-10-09T05:51:26.922Z,0.90
2022-10-09T05:53:55.518Z,1.08
2022-10-09T05:56:37.120Z,0.75
2022-10-09T05:59:10.949Z,0.70
2022-10-09T06:01:42.453Z,1.05
2022-10-09T06:04:16.304Z,0.60
2022-10-09T06:06:44.979Z,0.70
2022-10-09T06:09:19.570Z,0.68
2022-10-09T06:11:47.286Z,0.93
2022-10-09T06:14:15.140Z,0.75
2022-10-09T06:16:45.628Z,0.75
2022-10-09T06:19:16.314Z,0.88
2022-10-09T06:21:45.323Z,0.70
2022-10-09T06:24:28.358Z,0.82
2022-10-09T06:26:59.232Z,0.70
2022-10-09T06:29:27.384Z,1.23
2022-10-09T06:31:54.863Z,0.65
2022-10-09T06:34:22.650Z,0.85
2022-10-09T06:36:50.159Z,0.90
2022-10-09T06:39:17.597Z,0.70
2022-10-09T06:41:45.009Z,1.10
2022-10-09T06:44:45.820Z,1.20
2022-10-09T06:47:13.273Z,0.70
2022-10-09T06:49:40.561Z,0.85
2022-10-09T06:52:07.923Z,0.88
2022-10-09T06:54:35.477Z,0.82
2022-10-09T06:57:02.819Z,0.88
2022-10-09T06:59:30.353Z,0.93
2022-10-09T07:01:58.156Z,0.90
2022-10-09T07:04:25.884Z,0.88
2022-10-09T07:06:53.591Z,0.73
2022-10-09T07:09:21.105Z,0.70
2022-10-09T07:11:51.671Z,0.73
2022-10-09T07:14:19.351Z,0.88
2022-10-09T07:16:49.122Z,1.00
2022-10-09T07:19:18.403Z,0.80
2022-10-09T07:21:48.277Z,0.80
2022-10-09T07:24:17.518Z,1.10
2022-10-09T07:26:47.402Z,1.13
2022-10-09T07:29:17.481Z,0.80
2022-10-09T07:31:45.798Z,1.90
2022-10-09T07:34:13.305Z,1.52
2022-10-09T07:36:40.780Z,0.90
2022-10-09T07:39:08.457Z,0.80
2022-10-09T07:41:36.415Z,0.93
2022-10-09T07:44:04.400Z,0.98
2022-10-09T07:46:33.901Z,1.02
2022-10-09T07:49:03.181Z,1.17
2022-10-09T07:51:31.749Z,1.40
2022-10-09T07:54:00.961Z,1.50
2022-10-09T07:56:32.848Z,1.08
2022-10-09T07:59:03.984Z,1.27
2022-10-09T08:01:33.918Z,1.20
2022-10-09T08:04:02.778Z,1.50
2022-10-09T08:06:31.139Z,1.77
2022-10-09T08:09:00.705Z,1.52
2022-10-09T08:11:29.965Z,1.83
2022-10-09T08:13:58.304Z,2.17
2022-10-09T08:16:27.919Z,1.48
2022-10-09T08:19:00.710Z,1.90
2022-10-09T08:21:28.854Z,2.13
2022-10-09T08:23:59.238Z,1.77
2022-10-09T08:26:30.229Z,2.50
2022-10-09T08:29:01.611Z,1.90
2022-10-09T08:31:32.080Z,1.90
2022-10-09T08:34:02.883Z,2.10
2022-10-09T08:36:31.338Z,2.25
2022-10-09T08:38:59.310Z,2.30
2022-10-09T08:41:38.824Z,1.92
2022-10-09T08:44:22.680Z,2.13
2022-10-09T08:46:52.907Z,2.13
2022-10-09T08:49:57.826Z,1.42
2022-10-09T08:52:40.372Z,1.98
2022-10-09T08:55:47.665Z,2.03
2022-10-09T08:58:19.679Z,1.60
2022-10-09T09:00:55.443Z,1.77
2022-10-09T09:03:57.252Z,1.65
2022-10-09T09:06:49.700Z,1.55
2022-10-09T09:09:26.185Z,2.40
2022-10-09T09:12:09.812Z,2.00
2022-10-09T09:14:54.312Z,1.80
2022-10-09T09:18:03.917Z,2.50
2022-10-09T09:20:54.039Z,1.65
2022-10-09T09:23:29.646Z,1.58
2022-10-09T09:25:59.601Z,1.80
2022-10-09T09:28:35.175Z,1.50
2022-10-09T09:31:30.600Z,1.45
2022-10-09T09:34:07.128Z,2.47
2022-10-09T09:36:43.064Z,1.90
2022-10-09T09:42:15.078Z,2.63
2022-10-09T09:45:22.773Z,1.98
2022-10-09T09:47:56.355Z,2.40
2022-10-09T09:51:10.176Z,2.55
2022-10-09T09:53:34.676Z,2.88
2022-10-09T09:56:02.574Z,2.60
2022-10-09T09:58:45.711Z,2.22
2022-10-09T10:01:28.284Z,2.20
2022-10-09T10:04:01.777Z,2.58
2022-10-09T10:06:44.258Z,2.25
2022-10-09T10:09:17.962Z,2.05
2022-10-09T10:12:03.834Z,2.85
2022-10-09T10:14:32.495Z,1.90
2022-10-09T10:17:01.877Z,2.05
2022-10-09T10:19:35.703Z,2.38
2022-10-09T10:22:08.009Z,2.70
2022-10-09T10:24:45.203Z,2.03
2022-10-09T10:27:30.264Z,1.90
2022-10-09T10:30:04.465Z,2.65
2022-10-09T10:33:14.265Z,2.50
2022-10-09T10:35:52.174Z,3.28
2022-10-09T10:38:52.839Z,4.00
2022-10-09T10:41:34.252Z,2.55
2022-10-09T10:44:57.888Z,2.45
2022-10-09T10:47:31.403Z,2.33
2022-10-09T10:49:58.795Z,2.47
2022-10-09T10:52:35.903Z,2.88
2022-10-09T10:56:06.615Z,2.25
2022-10-09T10:59:10.850Z,2.35
2022-10-09T11:02:10.116Z,2.78
2022-10-09T11:04:47.694Z,1.60
2022-10-09T11:08:00.158Z,2.42
2022-10-09T11:10:36.647Z,2.28
2022-10-09T11:13:32.479Z,2.42
2022-10-09T11:16:33.773Z,2.50
2022-10-09T11:19:45.837Z,2.65
2022-10-09T11:22:33.421Z,2.72
2022-10-09T11:25:09.720Z,2.22
2022-10-09T11:28:01.583Z,2.00
2022-10-09T11:30:37.889Z,2.42
2022-10-09T11:33:14.616Z,2.72
2022-10-09T11:35:52.495Z,3.10
2022-10-09T11:38:30.004Z,3.00
2022-10-09T11:41:01.540Z,3.22
2022-10-09T11:43:54.993Z,1.92
2022-10-09T11:46:46.905Z,2.60
2022-10-09T11:49:40.091Z,2.30
2022-10-09T11:52:54.059Z,2.67
2022-10-09T11:55:29.267Z,3.15
2022-10-09T11:58:18.889Z,3.08
2022-10-09T12:00:50.854Z,1.90
2022-10-09T12:03:38.757Z,2.33
2022-10-09T12:06:10.311Z,2.83
2022-10-09T12:08:44.992Z,2.90
2022-10-09T12:11:19.006Z,2.03
2022-10-09T12:13:55.621Z,3.07
2022-10-09T12:16:40.050Z,2.55
2022-10-09T12:19:38.691Z,2.73
2022-10-09T12:22:11.632Z,2.47
2022-10-09T12:24:46.750Z,3.00
2022-10-09T12:27:34.252Z,2.92
2022-10-09T12:30:14.534Z,3.90
2022-10-09T12:32:54.578Z,3.65
2022-10-09T12:35:29.638Z,4.57
2022-10-09T12:37:57.445Z,5.15
2022-10-09T12:40:29.286Z,5.05
2022-10-09T12:42:59.684Z,5.32
2022-10-09T12:45:30.760Z,5.13
2022-10-09T12:48:01.208Z,3.03
2022-10-09T12:50:33.696Z,4.22
2022-10-09T12:53:04.411Z,4.82
2022-10-09T12:55:41.838Z,3.70
2022-10-09T12:58:16.796Z,3.97
2022-10-09T13:03:43.971Z,4.03
2022-10-09T13:06:19.757Z,4.68
2022-10-09T13:08:57.733Z,4.25
2022-10-09T13:11:38.296Z,4.35
2022-10-09T13:14:05.872Z,4.90
2022-10-09T13:16:43.200Z,4.68
2022-10-09T13:19:30.020Z,4.30
2022-10-09T13:22:25.250Z,4.28
2022-10-09T13:24:56.610Z,3.50
2022-10-09T13:27:33.985Z,3.80
2022-10-09T13:30:02.041Z,4.07
2022-10-09T13:32:29.701Z,3.30
2022-10-09T13:34:58.389Z,4.30
2022-10-09T13:37:27.320Z,3.60
2022-10-09T13:40:00.240Z,3.90
2022-10-09T13:42:32.925Z,4.03
2022-10-09T13:45:00.553Z,3.60
2022-10-09T13:47:28.054Z,4.15
2022-10-09T13:49:55.565Z,3.78
2022-10-09T13:52:22.887Z,4.15
2022-10-09T13:54:50.288Z,4.07
2022-10-09T13:57:17.795Z,3.80
2022-10-09T13:59:45.197Z,3.92
2022-10-09T14:02:13.197Z,3.83
2022-10-09T14:04:41.125Z,3.92
2022-10-09T14:07:08.820Z,3.33
2022-10-09T14:09:36.444Z,2.50
2022-10-09T14:12:04.152Z,3.17
2022-10-09T14:14:31.644Z,2.28
2022-10-09T14:16:59.212Z,3.80
2022-10-09T14:19:28.169Z,2.38
2022-10-09T14:21:56.825Z,3.92
2022-10-09T14:24:25.671Z,2.80
2022-10-09T14:26:53.141Z,2.85
2022-10-09T14:29:20.658Z,2.40
2022-10-09T14:31:51.661Z,3.40
2022-10-09T14:34:19.414Z,2.83
2022-10-09T14:36:47.091Z,2.63
2022-10-09T14:39:15.377Z,2.78
2022-10-09T14:41:43.284Z,2.50
2022-10-09T14:44:11.275Z,2.60
2022-10-09T14:46:39.574Z,2.60
2022-10-09T14:49:08.880Z,2.55
2022-10-09T14:51:39.530Z,2.30
2022-10-09T14:54:09.116Z,2.20
2022-10-09T14:56:36.690Z,2.83
2022-10-09T14:59:08.973Z,2.60
2022-10-09T15:01:36.625Z,3.08
2022-10-09T15:04:06.659Z,2.85
2022-10-09T15:06:34.748Z,2.22
2022-10-09T15:09:05.863Z,2.72
2022-10-09T15:11:34.929Z,2.80
2022-10-09T15:14:02.524Z,2.28
2022-10-09T15:16:30.181Z,2.92
2022-10-09T15:18:57.774Z,2.25
2022-10-09T15:21:31.857Z,2.47
2022-10-09T15:24:01.803Z,2.35
2022-10-09T15:26:36.584Z,2.38
2022-10-09T15:29:10.128Z,2.40
2022-10-09T15:31:40.533Z,2.42
2022-10-09T15:34:10.981Z,2.17
2022-10-09T15:36:40.498Z,2.47
2022-10-09T15:39:09.093Z,2.15
2022-10-09T15:41:40.087Z,2.53
2022-10-09T15:44:14.732Z,2.35
2022-10-09T15:46:42.270Z,2.60
2022-10-09T15:49:10.028Z,2.60
2022-10-09T15:51:38.171Z,1.95
2022-10-09T15:54:06.216Z,2.30
2022-10-09T15:56:38.924Z,3.38
2022-10-09T15:59:09.590Z,2.65
2022-10-09T16:01:37.099Z,2.15
2022-10-09T16:04:04.726Z,2.30
2022-10-09T16:06:32.412Z,2.75
2022-10-09T16:08:59.947Z,2.63
2022-10-09T16:11:27.520Z,1.83
2022-10-09T16:13:56.336Z,2.60
2022-10-09T16:16:26.183Z,2.30
2022-10-09T16:18:55.090Z,1.73
2022-10-09T16:21:29.146Z,1.77
2022-10-09T16:23:59.456Z,2.10
2022-10-09T16:26:29.740Z,1.90
2022-10-09T16:28:57.843Z,2.17
2022-10-09T16:31:37.482Z,2.33
2022-10-09T16:34:07.152Z,2.08
2022-10-09T16:36:34.915Z,1.73
2022-10-09T16:39:02.567Z,1.75
2022-10-09T16:41:29.989Z,1.73
2022-10-09T16:44:00.314Z,2.28
2022-10-09T16:49:06.609Z,1.42
2022-10-09T16:51:36.039Z,1.98
2022-10-09T16:54:05.894Z,2.50
2022-10-09T16:56:37.653Z,1.92
2022-10-09T16:59:09.033Z,2.00
2022-10-09T17:01:38.058Z,1.77
2022-10-09T17:04:05.789Z,1.60
2022-10-09T17:06:33.364Z,1.80
2022-10-09T17:09:00.821Z,1.98
2022-10-09T17:11:30.819Z,2.28
2022-10-09T17:13:58.465Z,1.83
2022-10-09T17:16:34.281Z,2.83
2022-10-09T17:19:02.945Z,1.50
2022-10-09T17:21:34.228Z,1.80
2022-10-09T17:24:04.615Z,1.27
2022-10-09T17:26:32.090Z,1.90
2022-10-09T17:29:01.358Z,1.98
2022-10-09T17:31:30.149Z,1.80
2022-10-09T17:34:01.618Z,1.88
2022-10-09T17:36:34.678Z,1.48
2022-10-09T17:39:03.079Z,1.77
2022-10-09T17:41:31.038Z,1.85
2022-10-09T17:43:59.301Z,1.92
2022-10-09T17:46:29.166Z,2.47
2022-10-09T17:48:58.546Z,1.80
2022-10-09T17:51:31.069Z,2.88
2022-10-09T17:54:02.694Z,2.95
2022-10-09T17:56:32.477Z,3.47
2022-10-09T17:59:01.724Z,3.30
2022-10-09T18:01:29.582Z,2.67
2022-10-09T18:03:58.026Z,3.00
2022-10-09T18:06:30.962Z,2.17
2022-10-09T18:08:58.538Z,2.45
2022-10-09T18:11:27.355Z,2.22
2022-10-09T18:13:55.245Z,2.75
2022-10-09T18:16:38.069Z,2.03
2022-10-09T18:19:13.897Z,2.33
2022-10-09T18:21:45.175Z,2.15
2022-10-09T18:24:13.948Z,2.03
2022-10-09T18:26:42.569Z,1.92
2022-10-09T18:29:10.075Z,1.92
2022-10-09T18:31:38.705Z,2.85
2022-10-09T18:34:06.501Z,1.55
2022-10-09T18:36:35.131Z,2.17
2022-10-09T18:39:08.588Z,2.00
2022-10-09T18:41:37.102Z,2.33
2022-10-09T18:44:07.071Z,2.20
2022-10-09T18:46:42.421Z,2.42
2022-10-09T18:49:14.409Z,1.83
2022-10-09T18:51:42.808Z,1.75
2022-10-09T18:54:17.136Z,1.77
2022-10-09T18:56:46.434Z,1.70
2022-10-09T18:59:18.934Z,1.77
2022-10-09T19:01:46.834Z,1.50
2022-10-09T19:04:14.411Z,1.98
2022-10-09T19:06:41.891Z,2.10
2022-10-09T19:09:09.466Z,1.70
2022-10-09T19:11:37.030Z,1.85
2022-10-09T19:14:04.700Z,1.30
2022-10-09T19:16:35.827Z,1.75
2022-10-09T19:19:04.187Z,1.98
2022-10-09T19:21:31.733Z,2.03
2022-10-09T19:24:06.337Z,1.65
2022-10-09T19:26:35.537Z,1.95
2022-10-09T19:29:04.746Z,1.80
2022-10-09T19:31:36.779Z,1.48
2022-10-09T19:34:05.782Z,1.35
2022-10-09T19:36:35.205Z,1.55
2022-10-09T19:39:04.874Z,1.67
2022-10-09T19:41:32.422Z,1.60
2022-10-09T19:44:00.807Z,1.55
2022-10-09T19:46:28.910Z,1.42
2022-10-09T19:48:56.355Z,1.65
2022-10-09T19:51:26.663Z,1.88
2022-10-09T19:53:54.971Z,1.77
2022-10-09T19:56:26.839Z,1.50
2022-10-09T19:58:55.667Z,1.48
2022-10-09T20:01:27.285Z,1.50
2022-10-09T20:04:00.399Z,1.73
2022-10-09T20:06:28.442Z,1.10
2022-10-09T20:08:56.195Z,1.30
2022-10-09T20:11:24.153Z,1.77
2022-10-09T20:13:55.796Z,1.40
2022-10-09T20:16:24.781Z,1.73
2022-10-09T20:18:52.290Z,1.83
2022-10-09T20:21:19.779Z,1.90
2022-10-09T20:23:47.292Z,1.40
2022-10-09T20:26:18.564Z,1.10
2022-10-09T20:28:48.037Z,1.52
2022-10-09T20:31:20.966Z,1.50
2022-10-09T20:33:50.190Z,1.67
2022-10-09T20:36:35.601Z,1.98
2022-10-09T20:39:09.208Z,2.60
2022-10-09T20:41:37.719Z,2.60
2022-10-09T20:44:06.561Z,2.72
2022-10-09T20:46:37.634Z,4.90
2022-10-09T20:49:08.524Z,6.60
2022-10-09T20:51:38.418Z,4.78
2022-10-09T20:54:08.775Z,4.90
2022-10-09T20:56:36.986Z,4.75
2022-10-09T20:59:04.679Z,4.70
2022-10-09T21:01:32.418Z,5.15
2022-10-09T21:04:00.010Z,4.35
2022-10-09T21:06:27.807Z,3.80
2022-10-09T21:08:56.761Z,4.50
2022-10-09T21:11:25.249Z,4.30
2022-10-09T21:13:53.087Z,3.70
2022-10-09T21:16:24.077Z,4.75
2022-10-09T21:19:03.536Z,4.22
2022-10-09T21:21:32.196Z,3.50
2022-10-09T21:24:01.439Z,3.78
2022-10-09T21:26:30.864Z,3.30
2022-10-09T21:29:00.075Z,3.10
2022-10-09T21:31:30.270Z,3.25
2022-10-09T21:33:59.907Z,3.22
2022-10-09T21:39:32.954Z,3.25
2022-10-09T21:42:00.195Z,2.80
2022-10-09T21:44:27.815Z,2.85
2022-10-09T21:46:55.179Z,2.83
2022-10-09T21:49:27.471Z,2.85
2022-10-09T21:51:55.672Z,2.25
2022-10-09T21:54:23.705Z,2.72
2022-10-09T21:56:51.203Z,2.63
2022-10-09T21:59:18.591Z,2.72
2022-10-09T22:01:45.984Z,2.63
2022-10-09T22:04:13.385Z,1.83
2022-10-09T22:06:41.448Z,2.08
2022-10-09T22:09:10.232Z,2.15
2022-10-09T22:11:37.696Z,1.95
2022-10-09T22:14:06.050Z,2.83
2022-10-09T22:16:33.548Z,2.20
2022-10-09T22:19:01.203Z,2.15
2022-10-09T22:21:28.954Z,1.83
2022-10-09T22:23:56.321Z,1.90
2022-10-09T22:26:24.294Z,1.95
2022-10-09T22:28:51.738Z,1.85
2022-10-09T22:31:25.612Z,2.33
2022-10-09T22:33:56.954Z,2.15
2022-10-09T22:36:28.177Z,1.70
2022-10-09T22:38:58.545Z,2.00
2022-10-09T22:41:27.903Z,2.95
2022-10-09T22:43:59.864Z,6.80
2022-10-09T22:46:37.455Z,4.78
2022-10-09T22:49:07.607Z,5.10
2022-10-09T22:51:35.076Z,5.05
2022-10-09T22:54:02.700Z,4.57
2022-10-09T22:56:36.300Z,4.78
2022-10-09T22:59:05.436Z,4.68
2022-10-09T23:01:41.496Z,4.70
2022-10-09T23:04:12.734Z,3.25
2022-10-09T23:06:41.462Z,3.75
2022-10-09T23:09:11.769Z,4.07
2022-10-09T23:11:39.450Z,3.60
2022-10-09T23:14:07.455Z,3.50
2022-10-09T23:16:35.145Z,3.22
2022-10-09T23:19:06.662Z,3.50
2022-10-09T23:21:36.828Z,3.35
2022-10-09T23:24:05.509Z,3.17
2022-10-09T23:26:35.532Z,3.22
2022-10-09T23:29:15.885Z,2.92
2022-10-09T23:31:45.916Z,3.08
2022-10-09T23:34:13.773Z,3.10
2022-10-09T23:36:41.323Z,2.42
2022-10-09T23:39:09.310Z,2.38
2022-10-09T23:41:38.166Z,2.20
2022-10-09T23:44:05.627Z,2.67
2022-10-09T23:46:34.058Z,2.35
2022-10-09T23:49:02.043Z,2.20
2022-10-09T23:51:30.573Z,2.67
2022-10-09T23:53:58.778Z,2.90
2022-10-09T23:56:33.266Z,2.35
2022-10-09T23:59:03.391Z,2.50
